x

Boston 16 Nm East Of Boston, Ma (44013) Wave Buoy

12:50 - Thu 19th Jan 2017 All times are EST. -5 hours from GMT.

  • Sig Wave height 5.2ft
  • Swell Direction
  • Peak Period 10s
  • Average Period 7s
  • Wind
    9mph, 11mph gusts
  • Sea Temp 45°f
  • Aire Temp 40°f
  • Sea Pressure 1013.4mb
  • Boston 16 Nm East Of Boston, Ma
  • Boston 16 Nm East Of Boston, Ma

More Historic Weather Station data

Upgrade to MSW Pro to gain access to the past 30 days of data for over 8000 Wavebouys and Weather Stations around the globe.

Join Pro

Comparision Forecast

View Surf forecast
   
jue 01/19 12:50 5ft 10s 7s 9 11 mph 1013.4mb 45f 40f
11:50 5ft 9s 7s 7 11 mph 1014.1mb 45f 38f
10:50 5ft 8s 7s 7 9 mph 1015.3mb 45f 37f
9:50 6ft 9s 7s 4 7 mph 1015.7mb 44f 38f
8:50 5.5ft 8s 7s 4 7 mph 1015.7mb 44f 36f
7:50 6ft 8s 7s 4 7 mph 1015.5mb 44f 36f
6:50 6ft 8s 7s 4 7 mph 1015.3mb 45f 35f
5:50 6ft 8s 7s 7 9 mph 1015.3mb 45f 35f
4:50 7ft 8s 7s 9 11 mph 1015mb 45f 35f
3:50 6ft 9s 6s 11 13 mph 1014.8mb 45f 34f
2:50 7ft 8s 7s 16 18 mph 1015mb 45f 37f
1:50 7ft 8s 6s 13 18 mph 1014.8mb 45f 37f
12:50 7ft 9s 6s 18 20 mph 1014.9mb 45f 37f
mié 01/18 11:50 8.5ft 9s 7s 16 18 mph 1014.8mb 45f 37f
10:50 8ft 9s 7s 9 13 mph 1015.2mb 45f 41f
9:50 8.5ft 9s 7s 13 16 mph 1015.2mb 45f 41f
8:50 8ft 10s 7s 13 16 mph 1015.8mb 45f 42f
7:50 8.5ft 9s 7s 16 20 mph 1015.9mb 45f 41f
6:50 10ft 9s 7s 16 20 mph 1015.8mb 45f 41f
5:50 9.5ft 9s 7s 16 20 mph 1015.1mb 45f 42f
4:50 10ft 9s 7s 18 22 mph 1014.4mb 45f 42f
3:50 9ft 8s 6s 18 22 mph 1013.9mb 45f 41f
2:50 8ft 8s 6s 18 22 mph 1013.7mb 45f 41f
1:50 9ft 8s 6s 20 25 mph 1013.2mb 45f 40f
12:50 8ft 7s 6s 22 27 mph 1012.9mb 45f 40f
11:50 7ft 7s 5s 22 27 mph 1013mb 45f 41f
10:50 6ft 6s 5s 22 27 mph 1013.9mb 45f 41f
9:50 5ft 6s 5s 22 27 mph 1014.5mb 45f 41f
8:50 5ft 6s 5s 18 20 mph 1014.8mb 45f 41f
7:50 5ft 6s 5s 20 22 mph 1014.1mb 45f 40f
6:50 6ft 6s 5s 20 22 mph 1014.5mb 45f 39f
5:50 5.5ft 6s 5s 20 25 mph 1014.6mb 45f 40f
4:50 6ft 6s 5s 25 27 mph 1014.3mb 45f 39f
3:50 5ft 6s 5s 25 29 mph 1014.5mb 45f 39f
2:50 5.5ft 6s 5s 25 27 mph 1015.5mb 45f 39f
1:50 5ft 6s 5s 25 27 mph 1016.2mb 45f 39f
12:50 5ft 6s 5s 22 25 mph 1017.2mb 45f 40f
mar 01/17 11:50 4.5ft 5s 4s 22 27 mph 1017.8mb 45f 40f
10:50 4.5ft 5s 4s 25 27 mph 1018.4mb 45f 39f
9:50 3.5ft 5s 4s 22 27 mph 1019.5mb 45f 39f
8:50 3.5ft 5s 4s 22 27 mph 1020mb 45f 40f
7:50 3.5ft 5s 4s 20 25 mph 1020.7mb 45f 40f
6:50 3ft 4s 4s 20 22 mph 1020.9mb 45f 41f
5:50 2.5ft 4s 4s 20 22 mph 1020.8mb 45f 42f
4:50 2ft 5s 4s 18 20 mph 1020.9mb 45f 43f
3:50 2.5ft 5s 4s 11 13 mph 1021.1mb 45f 43f
2:50 2ft 4s 4s 11 13 mph 1021.2mb 45f 42f
1:50 2.5ft 4s 3s 11 16 mph 1021.4mb 45f 42f
12:50 2ft 4s 3s 16 18 mph 1021.7mb 45f 42f
11:50 1.3ft 3s 3s 18 20 mph 1022.4mb 45f 42f
10:50 1ft 2s 3s 9 11 mph 1023.7mb 45f 42f
9:50 1ft 2s 3s 9 11 mph 1024.1mb 45f 39f
8:50 1ft 2s 3s 13 16 mph 1023.9mb 45f 38f
7:50 1ft 3s 3s 16 18 mph 1023mb 45f 39f
6:50 1ft 3s 3s 13 16 mph 1022.5mb 45f 38f
5:50 1.3ft 3s 3s 13 16 mph 1022.2mb 45f 39f
4:50 1.3ft 3s 3s 18 20 mph 1021.5mb 45f 39f
3:50 1.6ft 3s 3s 18 20 mph 1021.5mb 45f 38f
2:50 2ft 3s 3s 18 20 mph 1021.4mb 45f 38f
1:50 2ft 3s 3s 18 20 mph 1021.3mb 45f 38f
12:50 2.5ft 4s 3s 20 22 mph 1021.5mb 45f 38f
lun 01/16 11:50 2.5ft 4s 3s 22 27 mph 1021.5mb 45f 39f
10:50 2.5ft 4s 3s 22 27 mph 1022.3mb 45f 39f
9:50 2.5ft 3s 3s 22 27 mph 1022.9mb 45f 39f
8:50 2ft 3s 3s 20 22 mph 1023.3mb 45f 39f
7:50 1.6ft 3s 3s 22 27 mph 1023.6mb 45f 40f
6:50 1.6ft 3s 3s 20 22 mph 1023.9mb 44f 40f
5:50 1.6ft 3s 3s 18 22 mph 1024.1mb 45f 41f
4:50 2ft 3s 3s 18 20 mph 1024.1mb 45f 41f
3:50 2ft 3s 3s 16 20 mph 1024.3mb 45f 42f
2:50 2ft 3s 3s 20 22 mph 1024.3mb 45f 41f
1:50 2ft 3s 3s 16 20 mph 1024.9mb 45f 40f
12:50 2ft 3s 3s 18 22 mph 1025.6mb 45f 38f
11:50 1.6ft 3s 3s 18 20 mph 1027.1mb 45f 37f
10:50 1.3ft 5s 4s 16 20 mph 1028.7mb 45f 35f
9:50 1.3ft 5s 5s 11 13 mph 1029.9mb 44f 34f
8:50 1.3ft 5s 5s 9 11 mph 1029.9mb 44f 34f
7:50 1.6ft 5s 5s 7 9 mph 1030.3mb 44f 33f
6:50 1.3ft 5s 5s 4 7 mph 1030.1mb 44f 32f
5:50 1.3ft 4s 4s 2 4 mph 1030.1mb 44f 31f
4:50 1.3ft 4s 4s 4 7 mph 1029.9mb 44f 32f
3:50 1.3ft 4s 3s 4 7 mph 1029.8mb 45f 32f
2:50 1.3ft 10s 3s 7 9 mph 1029.7mb 45f 32f
1:50 1.3ft 4s 4s 11 13 mph 1029.8mb 45f 33f
12:50 1.6ft 5s 4s 9 11 mph 1029mb 45f 33f
dom 01/15 11:50 2ft 5s 4s 9 11 mph 1028.9mb 45f 34f
10:50 2ft 5s 4s 11 13 mph 1029.1mb 45f 34f
9:50 2ft 4s 4s 11 13 mph 1029.1mb 44f 34f
8:50 2ft 4s 3s 13 16 mph 1028.6mb 45f 34f
7:50 1.6ft 3s 3s 18 20 mph 1028.2mb 45f 34f